sensor_id;sensor_type;location;lat;lon;timestamp;P1;durP1;ratioP1;P2;durP2;ratioP2
9005;SDS011;62284;50.702;7.140;2022-10-16T00:00:37;3.00;;;2.10;;
9005;SDS011;62284;50.702;7.140;2022-10-16T00:03:05;2.10;;;2.00;;
9005;SDS011;62284;50.702;7.140;2022-10-16T00:05:33;2.47;;;1.88;;
9005;SDS011;62284;50.702;7.140;2022-10-16T00:08:05;9.13;;;2.22;;
9005;SDS011;62284;50.702;7.140;2022-10-16T00:10:32;2.00;;;1.90;;
9005;SDS011;62284;50.702;7.140;2022-10-16T00:13:01;2.40;;;2.30;;
9005;SDS011;62284;50.702;7.140;2022-10-16T00:15:28;3.08;;;2.50;;
9005;SDS011;62284;50.702;7.140;2022-10-16T00:17:55;3.03;;;2.83;;
9005;SDS011;62284;50.702;7.140;2022-10-16T00:20:22;2.75;;;2.53;;
9005;SDS011;62284;50.702;7.140;2022-10-16T00:22:49;2.90;;;2.70;;
9005;SDS011;62284;50.702;7.140;2022-10-16T00:25:16;2.97;;;2.78;;
9005;SDS011;62284;50.702;7.140;2022-10-16T00:27:43;2.90;;;2.58;;
9005;SDS011;62284;50.702;7.140;2022-10-16T00:30:12;2.63;;;2.42;;
9005;SDS011;62284;50.702;7.140;2022-10-16T00:32:38;3.40;;;2.17;;
9005;SDS011;62284;50.702;7.140;2022-10-16T00:35:05;3.83;;;2.45;;
9005;SDS011;62284;50.702;7.140;2022-10-16T00:37:32;2.63;;;2.42;;
9005;SDS011;62284;50.702;7.140;2022-10-16T00:39:59;2.70;;;2.10;;
9005;SDS011;62284;50.702;7.140;2022-10-16T00:42:26;2.13;;;1.80;;
9005;SDS011;62284;50.702;7.140;2022-10-16T00:44:54;1.85;;;1.75;;
9005;SDS011;62284;50.702;7.140;2022-10-16T00:47:24;2.30;;;2.20;;
9005;SDS011;62284;50.702;7.140;2022-10-16T00:49:56;4.75;;;2.30;;
9005;SDS011;62284;50.702;7.140;2022-10-16T00:52:26;3.53;;;2.30;;
9005;SDS011;62284;50.702;7.140;2022-10-16T00:54:53;2.15;;;2.03;;
9005;SDS011;62284;50.702;7.140;2022-10-16T00:57:21;2.35;;;2.08;;
9005;SDS011;62284;50.702;7.140;2022-10-16T00:59:49;3.30;;;2.08;;
9005;SDS011;62284;50.702;7.140;2022-10-16T01:02:16;3.35;;;2.28;;
9005;SDS011;62284;50.702;7.140;2022-10-16T01:04:45;2.60;;;2.40;;
9005;SDS011;62284;50.702;7.140;2022-10-16T01:07:16;7.13;;;2.50;;
9005;SDS011;62284;50.702;7.140;2022-10-16T01:09:57;2.85;;;2.47;;
9005;SDS011;62284;50.702;7.140;2022-10-16T01:12:33;2.58;;;2.38;;
9005;SDS011;62284;50.702;7.140;2022-10-16T01:15:07;3.22;;;2.42;;
9005;SDS011;62284;50.702;7.140;2022-10-16T01:17:39;3.10;;;2.47;;
9005;SDS011;62284;50.702;7.140;2022-10-16T01:20:13;2.72;;;2.53;;
9005;SDS011;62284;50.702;7.140;2022-10-16T01:22:50;2.95;;;2.55;;
9005;SDS011;62284;50.702;7.140;2022-10-16T01:25:32;2.80;;;2.50;;
9005;SDS011;62284;50.702;7.140;2022-10-16T01:28:19;4.00;;;2.50;;
9005;SDS011;62284;50.702;7.140;2022-10-16T01:30:50;2.40;;;2.22;;
9005;SDS011;62284;50.702;7.140;2022-10-16T01:33:21;2.55;;;2.35;;
9005;SDS011;62284;50.702;7.140;2022-10-16T01:35:52;4.78;;;2.17;;
9005;SDS011;62284;50.702;7.140;2022-10-16T01:38:23;2.10;;;2.00;;
9005;SDS011;62284;50.702;7.140;2022-10-16T01:40:56;3.40;;;2.17;;
9005;SDS011;62284;50.702;7.140;2022-10-16T01:43:28;2.30;;;2.10;;
9005;SDS011;62284;50.702;7.140;2022-10-16T01:46:00;2.33;;;2.10;;
9005;SDS011;62284;50.702;7.140;2022-10-16T01:48:27;2.45;;;2.17;;
9005;SDS011;62284;50.702;7.140;2022-10-16T01:50:57;2.15;;;1.95;;
9005;SDS011;62284;50.702;7.140;2022-10-16T01:53:28;4.20;;;2.30;;
9005;SDS011;62284;50.702;7.140;2022-10-16T01:55:56;2.50;;;2.30;;
9005;SDS011;62284;50.702;7.140;2022-10-16T01:58:27;2.63;;;2.25;;
9005;SDS011;62284;50.702;7.140;2022-10-16T02:00:59;3.10;;;2.08;;
9005;SDS011;62284;50.702;7.140;2022-10-16T02:03:27;2.05;;;1.80;;
9005;SDS011;62284;50.702;7.140;2022-10-16T02:05:55;3.70;;;2.28;;
9005;SDS011;62284;50.702;7.140;2022-10-16T02:08:24;1.85;;;1.77;;
9005;SDS011;62284;50.702;7.140;2022-10-16T02:10:54;2.22;;;2.03;;
9005;SDS011;62284;50.702;7.140;2022-10-16T02:13:22;2.20;;;2.00;;
9005;SDS011;62284;50.702;7.140;2022-10-16T02:15:54;2.03;;;1.90;;
9005;SDS011;62284;50.702;7.140;2022-10-16T02:18:21;3.00;;;2.40;;
9005;SDS011;62284;50.702;7.140;2022-10-16T02:20:48;2.13;;;2.03;;
9005;SDS011;62284;50.702;7.140;2022-10-16T02:23:19;2.30;;;2.10;;
9005;SDS011;62284;50.702;7.140;2022-10-16T02:25:53;2.05;;;1.90;;
9005;SDS011;62284;50.702;7.140;2022-10-16T02:28:22;1.85;;;1.75;;
9005;SDS011;62284;50.702;7.140;2022-10-16T02:30:54;4.20;;;1.75;;
9005;SDS011;62284;50.702;7.140;2022-10-16T02:33:24;2.42;;;1.80;;
9005;SDS011;62284;50.702;7.140;2022-10-16T02:35:53;1.73;;;1.58;;
9005;SDS011;62284;50.702;7.140;2022-10-16T02:38:20;2.35;;;2.15;;
9005;SDS011;62284;50.702;7.140;2022-10-16T02:40:49;1.98;;;1.88;;
9005;SDS011;62284;50.702;7.140;2022-10-16T02:43:16;4.65;;;2.08;;
9005;SDS011;62284;50.702;7.140;2022-10-16T02:45:43;3.22;;;2.15;;
9005;SDS011;62284;50.702;7.140;2022-10-16T02:48:11;4.22;;;1.92;;
9005;SDS011;62284;50.702;7.140;2022-10-16T02:50:38;1.92;;;1.83;;
9005;SDS011;62284;50.702;7.140;2022-10-16T02:53:05;2.42;;;2.22;;
9005;SDS011;62284;50.702;7.140;2022-10-16T02:55:32;1.90;;;1.70;;
9005;SDS011;62284;50.702;7.140;2022-10-16T02:57:59;2.55;;;2.10;;
9005;SDS011;62284;50.702;7.140;2022-10-16T03:00:25;2.72;;;2.50;;
9005;SDS011;62284;50.702;7.140;2022-10-16T03:02:53;2.33;;;2.08;;
9005;SDS011;62284;50.702;7.140;2022-10-16T03:05:21;2.30;;;2.10;;
9005;SDS011;62284;50.702;7.140;2022-10-16T03:07:48;2.95;;;2.13;;
9005;SDS011;62284;50.702;7.140;2022-10-16T03:10:15;2.30;;;2.10;;
9005;SDS011;62284;50.702;7.140;2022-10-16T03:12:42;2.70;;;2.40;;
9005;SDS011;62284;50.702;7.140;2022-10-16T03:15:09;1.83;;;1.73;;
9005;SDS011;62284;50.702;7.140;2022-10-16T03:17:36;2.10;;;1.60;;
9005;SDS011;62284;50.702;7.140;2022-10-16T03:20:03;2.42;;;1.70;;
9005;SDS011;62284;50.702;7.140;2022-10-16T03:22:32;2.80;;;1.92;;
9005;SDS011;62284;50.702;7.140;2022-10-16T03:24:58;1.90;;;1.80;;
9005;SDS011;62284;50.702;7.140;2022-10-16T03:27:25;2.05;;;1.83;;
9005;SDS011;62284;50.702;7.140;2022-10-16T03:29:52;2.63;;;1.83;;
9005;SDS011;62284;50.702;7.140;2022-10-16T03:32:19;2.60;;;1.95;;
9005;SDS011;62284;50.702;7.140;2022-10-16T03:34:46;1.42;;;1.33;;
9005;SDS011;62284;50.702;7.140;2022-10-16T03:37:13;1.42;;;1.42;;
9005;SDS011;62284;50.702;7.140;2022-10-16T03:39:41;3.28;;;1.98;;
9005;SDS011;62284;50.702;7.140;2022-10-16T03:42:08;2.45;;;1.60;;
9005;SDS011;62284;50.702;7.140;2022-10-16T03:44:35;1.83;;;1.52;;
9005;SDS011;62284;50.702;7.140;2022-10-16T03:47:02;1.45;;;1.30;;
9005;SDS011;62284;50.702;7.140;2022-10-16T03:49:29;1.52;;;1.42;;
9005;SDS011;62284;50.702;7.140;2022-10-16T03:51:56;1.98;;;1.30;;
9005;SDS011;62284;50.702;7.140;2022-10-16T03:54:23;1.30;;;1.20;;
9005;SDS011;62284;50.702;7.140;2022-10-16T03:56:51;1.88;;;1.75;;
9005;SDS011;62284;50.702;7.140;2022-10-16T03:59:18;1.65;;;1.20;;
9005;SDS011;62284;50.702;7.140;2022-10-16T04:01:44;1.30;;;1.20;;
9005;SDS011;62284;50.702;7.140;2022-10-16T04:04:11;1.27;;;1.17;;
9005;SDS011;62284;50.702;7.140;2022-10-16T04:06:38;2.22;;;1.50;;
9005;SDS011;62284;50.702;7.140;2022-10-16T04:09:05;1.10;;;1.10;;
9005;SDS011;62284;50.702;7.140;2022-10-16T04:11:32;1.33;;;1.20;;
9005;SDS011;62284;50.702;7.140;2022-10-16T04:14:00;1.35;;;1.25;;
9005;SDS011;62284;50.702;7.140;2022-10-16T04:16:27;1.25;;;1.15;;
9005;SDS011;62284;50.702;7.140;2022-10-16T04:18:54;2.22;;;1.48;;
9005;SDS011;62284;50.702;7.140;2022-10-16T04:21:21;1.45;;;1.30;;
9005;SDS011;62284;50.702;7.140;2022-10-16T04:23:48;3.20;;;1.35;;
9005;SDS011;62284;50.702;7.140;2022-10-16T04:26:15;1.30;;;1.20;;
9005;SDS011;62284;50.702;7.140;2022-10-16T04:28:42;1.60;;;1.50;;
9005;SDS011;62284;50.702;7.140;2022-10-16T04:31:10;2.60;;;1.48;;
9005;SDS011;62284;50.702;7.140;2022-10-16T04:33:37;1.38;;;1.15;;
9005;SDS011;62284;50.702;7.140;2022-10-16T04:36:04;4.05;;;1.52;;
9005;SDS011;62284;50.702;7.140;2022-10-16T04:38:31;3.92;;;1.67;;
9005;SDS011;62284;50.702;7.140;2022-10-16T04:40:58;1.40;;;1.30;;
9005;SDS011;62284;50.702;7.140;2022-10-16T04:43:25;1.55;;;1.25;;
9005;SDS011;62284;50.702;7.140;2022-10-16T04:45:52;1.23;;;1.13;;
9005;SDS011;62284;50.702;7.140;2022-10-16T04:48:21;1.60;;;1.27;;
9005;SDS011;62284;50.702;7.140;2022-10-16T04:50:48;1.10;;;1.08;;
9005;SDS011;62284;50.702;7.140;2022-10-16T04:53:15;2.25;;;1.67;;
9005;SDS011;62284;50.702;7.140;2022-10-16T04:55:42;2.15;;;1.40;;
9005;SDS011;62284;50.702;7.140;2022-10-16T04:58:09;1.20;;;1.20;;
9005;SDS011;62284;50.702;7.140;2022-10-16T05:00:36;1.50;;;1.00;;
9005;SDS011;62284;50.702;7.140;2022-10-16T05:03:03;1.85;;;1.17;;
9005;SDS011;62284;50.702;7.140;2022-10-16T05:05:33;2.15;;;1.17;;
9005;SDS011;62284;50.702;7.140;2022-10-16T05:08:00;1.40;;;1.30;;
9005;SDS011;62284;50.702;7.140;2022-10-16T05:10:28;2.13;;;0.93;;
9005;SDS011;62284;50.702;7.140;2022-10-16T05:12:55;1.08;;;1.02;;
9005;SDS011;62284;50.702;7.140;2022-10-16T05:15:21;1.95;;;1.08;;
9005;SDS011;62284;50.702;7.140;2022-10-16T05:17:51;2.35;;;1.10;;
9005;SDS011;62284;50.702;7.140;2022-10-16T05:20:19;0.90;;;0.90;;
9005;SDS011;62284;50.702;7.140;2022-10-16T05:22:47;2.00;;;1.08;;
9005;SDS011;62284;50.702;7.140;2022-10-16T05:25:14;1.23;;;1.13;;
9005;SDS011;62284;50.702;7.140;2022-10-16T05:27:41;1.17;;;1.02;;
9005;SDS011;62284;50.702;7.140;2022-10-16T05:30:09;1.30;;;1.17;;
9005;SDS011;62284;50.702;7.140;2022-10-16T05:32:36;1.50;;;1.40;;
9005;SDS011;62284;50.702;7.140;2022-10-16T05:35:03;1.50;;;1.40;;
9005;SDS011;62284;50.702;7.140;2022-10-16T05:37:30;1.92;;;1.20;;
9005;SDS011;62284;50.702;7.140;2022-10-16T05:39:58;1.60;;;1.50;;
9005;SDS011;62284;50.702;7.140;2022-10-16T05:42:25;3.63;;;2.30;;
9005;SDS011;62284;50.702;7.140;2022-10-16T05:44:52;3.40;;;2.00;;
9005;SDS011;62284;50.702;7.140;2022-10-16T05:47:19;1.92;;;1.83;;
9005;SDS011;62284;50.702;7.140;2022-10-16T05:49:46;2.38;;;2.05;;
9005;SDS011;62284;50.702;7.140;2022-10-16T05:52:13;2.78;;;1.50;;
9005;SDS011;62284;50.702;7.140;2022-10-16T05:54:40;1.67;;;1.58;;
9005;SDS011;62284;50.702;7.140;2022-10-16T05:57:08;1.80;;;1.70;;
9005;SDS011;62284;50.702;7.140;2022-10-16T05:59:35;1.77;;;1.67;;
9005;SDS011;62284;50.702;7.140;2022-10-16T06:02:02;1.70;;;1.60;;
9005;SDS011;62284;50.702;7.140;2022-10-16T06:04:29;1.60;;;1.50;;
9005;SDS011;62284;50.702;7.140;2022-10-16T06:06:57;3.60;;;1.80;;
9005;SDS011;62284;50.702;7.140;2022-10-16T06:09:26;2.17;;;1.98;;
9005;SDS011;62284;50.702;7.140;2022-10-16T06:11:53;1.60;;;1.50;;
9005;SDS011;62284;50.702;7.140;2022-10-16T06:14:21;1.42;;;1.33;;
9005;SDS011;62284;50.702;7.140;2022-10-16T06:16:48;1.95;;;1.77;;
9005;SDS011;62284;50.702;7.140;2022-10-16T06:19:15;1.65;;;1.55;;
9005;SDS011;62284;50.702;7.140;2022-10-16T06:21:42;1.75;;;1.40;;
9005;SDS011;62284;50.702;7.140;2022-10-16T06:24:09;3.20;;;1.75;;
9005;SDS011;62284;50.702;7.140;2022-10-16T06:26:36;1.40;;;1.40;;
9005;SDS011;62284;50.702;7.140;2022-10-16T06:29:04;1.95;;;1.60;;
9005;SDS011;62284;50.702;7.140;2022-10-16T06:31:32;1.80;;;1.70;;
9005;SDS011;62284;50.702;7.140;2022-10-16T06:33:59;1.42;;;1.42;;
9005;SDS011;62284;50.702;7.140;2022-10-16T06:36:27;1.80;;;1.70;;
9005;SDS011;62284;50.702;7.140;2022-10-16T06:38:55;1.88;;;1.77;;
9005;SDS011;62284;50.702;7.140;2022-10-16T06:41:22;1.60;;;1.50;;
9005;SDS011;62284;50.702;7.140;2022-10-16T06:43:49;1.67;;;1.58;;
9005;SDS011;62284;50.702;7.140;2022-10-16T06:46:18;1.70;;;1.60;;
9005;SDS011;62284;50.702;7.140;2022-10-16T06:48:47;2.50;;;2.30;;
9005;SDS011;62284;50.702;7.140;2022-10-16T06:51:15;1.75;;;1.65;;
9005;SDS011;62284;50.702;7.140;2022-10-16T06:53:44;2.17;;;1.60;;
9005;SDS011;62284;50.702;7.140;2022-10-16T06:56:14;2.03;;;1.85;;
9005;SDS011;62284;50.702;7.140;2022-10-16T06:58:43;2.92;;;2.28;;
9005;SDS011;62284;50.702;7.140;2022-10-16T07:01:11;2.55;;;2.30;;
9005;SDS011;62284;50.702;7.140;2022-10-16T07:03:38;2.20;;;2.08;;
9005;SDS011;62284;50.702;7.140;2022-10-16T07:06:08;2.03;;;1.92;;
9005;SDS011;62284;50.702;7.140;2022-10-16T07:08:37;2.22;;;1.73;;
9005;SDS011;62284;50.702;7.140;2022-10-16T07:11:06;1.60;;;1.50;;
9005;SDS011;62284;50.702;7.140;2022-10-16T07:13:34;1.88;;;1.67;;
9005;SDS011;62284;50.702;7.140;2022-10-16T07:16:04;1.65;;;1.55;;
9005;SDS011;62284;50.702;7.140;2022-10-16T07:18:31;1.20;;;1.10;;
9005;SDS011;62284;50.702;7.140;2022-10-16T07:21:02;2.42;;;1.27;;
9005;SDS011;62284;50.702;7.140;2022-10-16T07:23:31;1.90;;;1.80;;
9005;SDS011;62284;50.702;7.140;2022-10-16T07:25:58;1.73;;;1.63;;
9005;SDS011;62284;50.702;7.140;2022-10-16T07:28:25;1.75;;;1.65;;
9005;SDS011;62284;50.702;7.140;2022-10-16T07:30:52;2.08;;;1.92;;
9005;SDS011;62284;50.702;7.140;2022-10-16T07:33:20;2.10;;;2.00;;
9005;SDS011;62284;50.702;7.140;2022-10-16T07:35:47;2.15;;;2.05;;
9005;SDS011;62284;50.702;7.140;2022-10-16T07:38:15;1.90;;;1.80;;
9005;SDS011;62284;50.702;7.140;2022-10-16T07:40:43;1.80;;;1.70;;
9005;SDS011;62284;50.702;7.140;2022-10-16T07:43:10;2.08;;;1.83;;
9005;SDS011;62284;50.702;7.140;2022-10-16T07:45:37;1.88;;;1.77;;
9005;SDS011;62284;50.702;7.140;2022-10-16T07:48:12;2.03;;;1.80;;
9005;SDS011;62284;50.702;7.140;2022-10-16T07:50:39;1.90;;;1.65;;
9005;SDS011;62284;50.702;7.140;2022-10-16T07:53:06;1.90;;;1.80;;
9005;SDS011;62284;50.702;7.140;2022-10-16T07:55:33;1.73;;;1.63;;
9005;SDS011;62284;50.702;7.140;2022-10-16T07:58:01;1.40;;;1.30;;
9005;SDS011;62284;50.702;7.140;2022-10-16T08:00:28;2.53;;;2.03;;
9005;SDS011;62284;50.702;7.140;2022-10-16T08:02:56;1.73;;;1.63;;
9005;SDS011;62284;50.702;7.140;2022-10-16T08:05:25;3.03;;;1.58;;
9005;SDS011;62284;50.702;7.140;2022-10-16T08:07:52;1.73;;;1.48;;
9005;SDS011;62284;50.702;7.140;2022-10-16T08:10:19;1.10;;;1.10;;
9005;SDS011;62284;50.702;7.140;2022-10-16T08:12:47;1.33;;;1.23;;
9005;SDS011;62284;50.702;7.140;2022-10-16T08:15:16;1.75;;;1.45;;
9005;SDS011;62284;50.702;7.140;2022-10-16T08:17:43;1.52;;;1.25;;
9005;SDS011;62284;50.702;7.140;2022-10-16T08:20:10;1.30;;;1.20;;
9005;SDS011;62284;50.702;7.140;2022-10-16T08:22:37;1.40;;;1.20;;
9005;SDS011;62284;50.702;7.140;2022-10-16T08:25:04;1.08;;;1.08;;
9005;SDS011;62284;50.702;7.140;2022-10-16T08:27:31;2.50;;;1.50;;
9005;SDS011;62284;50.702;7.140;2022-10-16T08:29:58;2.47;;;1.27;;
9005;SDS011;62284;50.702;7.140;2022-10-16T08:32:26;1.35;;;1.25;;
9005;SDS011;62284;50.702;7.140;2022-10-16T08:34:53;1.40;;;1.30;;
9005;SDS011;62284;50.702;7.140;2022-10-16T08:37:20;1.35;;;1.20;;
9005;SDS011;62284;50.702;7.140;2022-10-16T08:39:47;1.50;;;1.40;;
9005;SDS011;62284;50.702;7.140;2022-10-16T08:42:16;1.77;;;1.30;;
9005;SDS011;62284;50.702;7.140;2022-10-16T08:44:58;1.27;;;1.20;;
9005;SDS011;62284;50.702;7.140;2022-10-16T08:47:42;2.35;;;1.20;;
9005;SDS011;62284;50.702;7.140;2022-10-16T08:50:17;2.40;;;1.80;;
9005;SDS011;62284;50.702;7.140;2022-10-16T08:52:49;1.42;;;1.33;;
9005;SDS011;62284;50.702;7.140;2022-10-16T08:55:19;1.13;;;1.10;;
9005;SDS011;62284;50.702;7.140;2022-10-16T08:57:57;0.95;;;0.82;;
9005;SDS011;62284;50.702;7.140;2022-10-16T09:00:24;1.10;;;1.05;;
9005;SDS011;62284;50.702;7.140;2022-10-16T09:02:55;0.75;;;0.75;;
9005;SDS011;62284;50.702;7.140;2022-10-16T09:05:37;1.05;;;0.93;;
9005;SDS011;62284;50.702;7.140;2022-10-16T09:08:19;1.05;;;0.95;;
9005;SDS011;62284;50.702;7.140;2022-10-16T09:10:55;0.52;;;0.50;;
9005;SDS011;62284;50.702;7.140;2022-10-16T09:13:26;0.63;;;0.63;;
9005;SDS011;62284;50.702;7.140;2022-10-16T09:15:58;0.60;;;0.60;;
9005;SDS011;62284;50.702;7.140;2022-10-16T09:18:39;2.15;;;0.82;;
9005;SDS011;62284;50.702;7.140;2022-10-16T09:21:13;1.55;;;0.65;;
9005;SDS011;62284;50.702;7.140;2022-10-16T09:23:44;0.65;;;0.55;;
9005;SDS011;62284;50.702;7.140;2022-10-16T09:26:12;1.23;;;0.98;;
9005;SDS011;62284;50.702;7.140;2022-10-16T09:28:41;1.30;;;0.80;;
9005;SDS011;62284;50.702;7.140;2022-10-16T09:31:10;0.50;;;0.50;;
9005;SDS011;62284;50.702;7.140;2022-10-16T09:33:43;1.75;;;0.60;;
9005;SDS011;62284;50.702;7.140;2022-10-16T09:36:11;0.70;;;0.70;;
9005;SDS011;62284;50.702;7.140;2022-10-16T09:38:39;0.85;;;0.63;;
9005;SDS011;62284;50.702;7.140;2022-10-16T09:41:12;0.80;;;0.80;;
9005;SDS011;62284;50.702;7.140;2022-10-16T09:43:46;0.88;;;0.88;;
9005;SDS011;62284;50.702;7.140;2022-10-16T09:46:22;0.80;;;0.70;;
9005;SDS011;62284;50.702;7.140;2022-10-16T09:48:54;0.88;;;0.85;;
9005;SDS011;62284;50.702;7.140;2022-10-16T09:51:23;0.75;;;0.73;;
9005;SDS011;62284;50.702;7.140;2022-10-16T09:53:54;1.33;;;0.57;;
9005;SDS011;62284;50.702;7.140;2022-10-16T09:56:22;1.30;;;1.27;;
9005;SDS011;62284;50.702;7.140;2022-10-16T09:58:50;2.65;;;1.20;;
9005;SDS011;62284;50.702;7.140;2022-10-16T10:01:18;1.70;;;0.73;;
9005;SDS011;62284;50.702;7.140;2022-10-16T10:03:46;0.80;;;0.80;;
9005;SDS011;62284;50.702;7.140;2022-10-16T10:06:17;0.68;;;0.68;;
9005;SDS011;62284;50.702;7.140;2022-10-16T10:11:44;3.72;;;1.08;;
9005;SDS011;62284;50.702;7.140;2022-10-16T10:14:17;1.50;;;0.50;;
9005;SDS011;62284;50.702;7.140;2022-10-16T10:16:46;0.60;;;0.60;;
9005;SDS011;62284;50.702;7.140;2022-10-16T10:19:14;3.13;;;0.60;;
9005;SDS011;62284;50.702;7.140;2022-10-16T10:21:44;2.15;;;1.02;;
9005;SDS011;62284;50.702;7.140;2022-10-16T10:24:12;0.95;;;0.77;;
9005;SDS011;62284;50.702;7.140;2022-10-16T10:26:41;1.83;;;0.80;;
9005;SDS011;62284;50.702;7.140;2022-10-16T10:29:17;0.57;;;0.57;;
9005;SDS011;62284;50.702;7.140;2022-10-16T10:31:55;0.70;;;0.60;;
9005;SDS011;62284;50.702;7.140;2022-10-16T10:34:35;1.05;;;0.90;;
9005;SDS011;62284;50.702;7.140;2022-10-16T10:37:18;0.50;;;0.50;;
9005;SDS011;62284;50.702;7.140;2022-10-16T10:39:56;0.70;;;0.70;;
9005;SDS011;62284;50.702;7.140;2022-10-16T10:42:29;1.65;;;0.85;;
9005;SDS011;62284;50.702;7.140;2022-10-16T10:45:03;1.08;;;0.98;;
9005;SDS011;62284;50.702;7.140;2022-10-16T10:47:44;0.80;;;0.55;;
9005;SDS011;62284;50.702;7.140;2022-10-16T10:50:22;0.75;;;0.60;;
9005;SDS011;62284;50.702;7.140;2022-10-16T10:52:59;0.60;;;0.60;;
9005;SDS011;62284;50.702;7.140;2022-10-16T10:55:33;0.70;;;0.70;;
9005;SDS011;62284;50.702;7.140;2022-10-16T10:58:15;1.55;;;0.65;;
9005;SDS011;62284;50.702;7.140;2022-10-16T11:00:57;0.88;;;0.52;;
9005;SDS011;62284;50.702;7.140;2022-10-16T11:03:32;1.02;;;0.88;;
9005;SDS011;62284;50.702;7.140;2022-10-16T11:06:10;0.70;;;0.70;;
9005;SDS011;62284;50.702;7.140;2022-10-16T11:08:45;0.65;;;0.50;;
9005;SDS011;62284;50.702;7.140;2022-10-16T11:11:18;0.50;;;0.50;;
9005;SDS011;62284;50.702;7.140;2022-10-16T11:13:53;0.65;;;0.65;;
9005;SDS011;62284;50.702;7.140;2022-10-16T11:16:26;0.60;;;0.40;;
9005;SDS011;62284;50.702;7.140;2022-10-16T11:18:56;0.80;;;0.80;;
9005;SDS011;62284;50.702;7.140;2022-10-16T11:21:30;0.55;;;0.55;;
9005;SDS011;62284;50.702;7.140;2022-10-16T11:24:06;0.40;;;0.40;;
9005;SDS011;62284;50.702;7.140;2022-10-16T11:26:41;1.50;;;0.70;;
9005;SDS011;62284;50.702;7.140;2022-10-16T11:29:10;0.52;;;0.38;;
9005;SDS011;62284;50.702;7.140;2022-10-16T11:31:43;1.30;;;0.40;;
9005;SDS011;62284;50.702;7.140;2022-10-16T11:34:17;0.65;;;0.25;;
9005;SDS011;62284;50.702;7.140;2022-10-16T11:36:49;0.32;;;0.32;;
9005;SDS011;62284;50.702;7.140;2022-10-16T11:39:21;0.95;;;0.40;;
9005;SDS011;62284;50.702;7.140;2022-10-16T11:41:51;0.75;;;0.35;;
9005;SDS011;62284;50.702;7.140;2022-10-16T11:44:27;1.48;;;0.40;;
9005;SDS011;62284;50.702;7.140;2022-10-16T11:47:02;0.70;;;0.30;;
9005;SDS011;62284;50.702;7.140;2022-10-16T11:49:39;0.52;;;0.30;;
9005;SDS011;62284;50.702;7.140;2022-10-16T11:52:07;0.60;;;0.50;;
9005;SDS011;62284;50.702;7.140;2022-10-16T11:54:44;0.77;;;0.50;;
9005;SDS011;62284;50.702;7.140;2022-10-16T11:57:17;2.10;;;0.55;;
9005;SDS011;62284;50.702;7.140;2022-10-16T11:59:48;0.45;;;0.30;;
9005;SDS011;62284;50.702;7.140;2022-10-16T12:02:33;0.40;;;0.40;;
9005;SDS011;62284;50.702;7.140;2022-10-16T12:05:11;0.60;;;0.60;;
9005;SDS011;62284;50.702;7.140;2022-10-16T12:07:47;0.68;;;0.60;;
9005;SDS011;62284;50.702;7.140;2022-10-16T12:10:23;0.73;;;0.73;;
9005;SDS011;62284;50.702;7.140;2022-10-16T12:12:52;0.65;;;0.50;;
9005;SDS011;62284;50.702;7.140;2022-10-16T12:15:21;0.40;;;0.40;;
9005;SDS011;62284;50.702;7.140;2022-10-16T12:17:49;0.88;;;0.68;;
9005;SDS011;62284;50.702;7.140;2022-10-16T12:20:25;0.60;;;0.38;;
9005;SDS011;62284;50.702;7.140;2022-10-16T12:22:56;0.60;;;0.60;;
9005;SDS011;62284;50.702;7.140;2022-10-16T12:25:26;0.65;;;0.40;;
9005;SDS011;62284;50.702;7.140;2022-10-16T12:27:55;0.85;;;0.43;;
9005;SDS011;62284;50.702;7.140;2022-10-16T12:30:24;1.23;;;0.57;;
9005;SDS011;62284;50.702;7.140;2022-10-16T12:32:53;1.55;;;0.63;;
9005;SDS011;62284;50.702;7.140;2022-10-16T12:35:23;0.32;;;0.32;;
9005;SDS011;62284;50.702;7.140;2022-10-16T12:37:52;1.25;;;0.32;;
9005;SDS011;62284;50.702;7.140;2022-10-16T12:40:24;1.35;;;0.60;;
9005;SDS011;62284;50.702;7.140;2022-10-16T12:42:55;0.82;;;0.70;;
9005;SDS011;62284;50.702;7.140;2022-10-16T12:45:27;0.47;;;0.47;;
9005;SDS011;62284;50.702;7.140;2022-10-16T12:47:57;0.20;;;0.20;;
9005;SDS011;62284;50.702;7.140;2022-10-16T12:50:33;0.30;;;0.30;;
9005;SDS011;62284;50.702;7.140;2022-10-16T12:53:01;0.57;;;0.40;;
9005;SDS011;62284;50.702;7.140;2022-10-16T12:55:33;0.38;;;0.30;;
9005;SDS011;62284;50.702;7.140;2022-10-16T12:58:18;0.47;;;0.47;;
9005;SDS011;62284;50.702;7.140;2022-10-16T13:01:03;1.60;;;1.00;;
9005;SDS011;62284;50.702;7.140;2022-10-16T13:03:58;0.38;;;0.38;;
9005;SDS011;62284;50.702;7.140;2022-10-16T13:06:49;1.25;;;0.50;;
9005;SDS011;62284;50.702;7.140;2022-10-16T13:09:28;0.80;;;0.80;;
9005;SDS011;62284;50.702;7.140;2022-10-16T13:12:16;1.42;;;0.60;;
9005;SDS011;62284;50.702;7.140;2022-10-16T13:17:53;0.28;;;0.28;;
9005;SDS011;62284;50.702;7.140;2022-10-16T13:20:28;0.30;;;0.30;;
9005;SDS011;62284;50.702;7.140;2022-10-16T13:23:02;0.70;;;0.20;;
9005;SDS011;62284;50.702;7.140;2022-10-16T13:25:40;0.55;;;0.40;;
9005;SDS011;62284;50.702;7.140;2022-10-16T13:28:22;0.20;;;0.20;;
9005;SDS011;62284;50.702;7.140;2022-10-16T13:30:54;0.30;;;0.30;;
9005;SDS011;62284;50.702;7.140;2022-10-16T13:33:26;0.40;;;0.30;;
9005;SDS011;62284;50.702;7.140;2022-10-16T13:35:57;0.47;;;0.30;;
9005;SDS011;62284;50.702;7.140;2022-10-16T13:38:25;0.32;;;0.32;;
9005;SDS011;62284;50.702;7.140;2022-10-16T13:40:54;1.52;;;0.50;;
9005;SDS011;62284;50.702;7.140;2022-10-16T13:43:27;0.50;;;0.50;;
9005;SDS011;62284;50.702;7.140;2022-10-16T13:46:02;0.43;;;0.35;;
9005;SDS011;62284;50.702;7.140;2022-10-16T13:48:31;0.95;;;0.30;;
9005;SDS011;62284;50.702;7.140;2022-10-16T13:51:02;0.38;;;0.38;;
9005;SDS011;62284;50.702;7.140;2022-10-16T13:53:37;0.50;;;0.50;;
9005;SDS011;62284;50.702;7.140;2022-10-16T13:56:06;1.73;;;0.45;;
9005;SDS011;62284;50.702;7.140;2022-10-16T13:58:37;1.23;;;0.50;;
9005;SDS011;62284;50.702;7.140;2022-10-16T14:01:05;1.00;;;0.40;;
9005;SDS011;62284;50.702;7.140;2022-10-16T14:03:41;0.57;;;0.57;;
9005;SDS011;62284;50.702;7.140;2022-10-16T14:06:11;0.82;;;0.60;;
9005;SDS011;62284;50.702;7.140;2022-10-16T14:08:41;0.63;;;0.63;;
9005;SDS011;62284;50.702;7.140;2022-10-16T14:11:11;0.63;;;0.63;;
9005;SDS011;62284;50.702;7.140;2022-10-16T14:13:40;0.50;;;0.50;;
9005;SDS011;62284;50.702;7.140;2022-10-16T14:16:15;1.10;;;1.00;;
9005;SDS011;62284;50.702;7.140;2022-10-16T14:18:45;1.13;;;1.00;;
9005;SDS011;62284;50.702;7.140;2022-10-16T14:21:19;0.70;;;0.70;;
9005;SDS011;62284;50.702;7.140;2022-10-16T14:23:46;0.77;;;0.77;;
9005;SDS011;62284;50.702;7.140;2022-10-16T14:26:17;1.20;;;1.10;;
9005;SDS011;62284;50.702;7.140;2022-10-16T14:28:48;1.17;;;0.68;;
9005;SDS011;62284;50.702;7.140;2022-10-16T14:31:27;0.68;;;0.65;;
9005;SDS011;62284;50.702;7.140;2022-10-16T14:33:56;0.57;;;0.57;;
9005;SDS011;62284;50.702;7.140;2022-10-16T14:36:23;1.33;;;1.00;;
9005;SDS011;62284;50.702;7.140;2022-10-16T14:38:55;1.25;;;0.80;;
9005;SDS011;62284;50.702;7.140;2022-10-16T14:41:25;1.98;;;0.90;;
9005;SDS011;62284;50.702;7.140;2022-10-16T14:43:54;2.75;;;1.10;;
9005;SDS011;62284;50.702;7.140;2022-10-16T14:46:23;2.15;;;0.98;;
9005;SDS011;62284;50.702;7.140;2022-10-16T14:49:00;1.00;;;0.60;;
9005;SDS011;62284;50.702;7.140;2022-10-16T14:51:30;0.68;;;0.57;;
9005;SDS011;62284;50.702;7.140;2022-10-16T14:53:57;0.85;;;0.68;;
9005;SDS011;62284;50.702;7.140;2022-10-16T14:56:25;1.63;;;0.55;;
9005;SDS011;62284;50.702;7.140;2022-10-16T14:58:57;0.80;;;0.80;;
9005;SDS011;62284;50.702;7.140;2022-10-16T15:01:24;1.77;;;0.82;;
9005;SDS011;62284;50.702;7.140;2022-10-16T15:03:51;1.33;;;0.63;;
9005;SDS011;62284;50.702;7.140;2022-10-16T15:06:19;0.90;;;0.90;;
9005;SDS011;62284;50.702;7.140;2022-10-16T15:08:48;1.63;;;1.52;;
9005;SDS011;62284;50.702;7.140;2022-10-16T15:11:16;2.40;;;2.15;;
9005;SDS011;62284;50.702;7.140;2022-10-16T15:13:45;1.65;;;1.52;;
9005;SDS011;62284;50.702;7.140;2022-10-16T15:16:14;1.65;;;1.55;;
9005;SDS011;62284;50.702;7.140;2022-10-16T15:18:42;1.60;;;1.17;;
9005;SDS011;62284;50.702;7.140;2022-10-16T15:21:09;0.70;;;0.70;;
9005;SDS011;62284;50.702;7.140;2022-10-16T15:23:48;2.83;;;0.90;;